createdAt,value
2023-05-24T00:01:32.654Z,3.25
2023-05-24T00:05:46.747Z,2.25
2023-05-24T00:07:51.017Z,2.72
2023-05-24T00:09:52.557Z,2.65
2023-05-24T00:11:54.114Z,2.55
2023-05-24T00:13:58.649Z,2.80
2023-05-24T00:16:03.304Z,3.03
2023-05-24T00:18:07.515Z,2.63
2023-05-24T00:20:12.450Z,3.10
2023-05-24T00:22:32.588Z,3.00
2023-05-24T00:26:41.224Z,3.25
2023-05-24T00:28:45.392Z,4.90
2023-05-24T00:30:47.760Z,3.30
2023-05-24T00:32:52.340Z,3.20
2023-05-24T00:34:53.899Z,2.33
2023-05-24T00:36:57.146Z,2.40
2023-05-24T00:38:58.876Z,2.80
2023-05-24T00:41:01.440Z,2.28
2023-05-24T00:43:02.893Z,3.10
2023-05-24T00:45:07.686Z,2.95
2023-05-24T00:47:09.288Z,2.90
2023-05-24T00:49:13.523Z,2.80
2023-05-24T00:51:15.176Z,2.67
2023-05-24T00:53:36.957Z,2.63
2023-05-24T00:55:38.769Z,2.80
2023-05-24T00:57:43.058Z,2.33
2023-05-24T00:59:47.529Z,3.28
2023-05-24T01:01:52.034Z,2.85
2023-05-24T01:03:57.280Z,2.72
2023-05-24T01:05:59.341Z,2.85
2023-05-24T01:08:04.009Z,3.00
2023-05-24T01:10:25.370Z,2.90
2023-05-24T01:12:59.128Z,3.13
2023-05-24T01:15:10.260Z,3.65
2023-05-24T01:17:21.043Z,2.90
2023-05-24T01:19:43.424Z,2.58
2023-05-24T01:21:56.428Z,3.13
2023-05-24T01:24:06.963Z,2.95
2023-05-24T01:26:20.592Z,3.05
2023-05-24T01:28:22.404Z,2.80
2023-05-24T01:30:24.525Z,3.38
2023-05-24T01:32:26.119Z,2.80
2023-05-24T01:34:28.075Z,2.88
2023-05-24T01:36:32.424Z,2.75
2023-05-24T01:38:33.950Z,2.88
2023-05-24T01:40:36.880Z,3.35
2023-05-24T01:42:58.499Z,3.70
2023-05-24T01:45:05.703Z,2.65
2023-05-24T01:47:22.026Z,2.95
2023-05-24T01:49:27.069Z,3.13
2023-05-24T01:51:38.377Z,3.40
2023-05-24T01:53:47.004Z,3.30
2023-05-24T01:55:53.533Z,3.05
2023-05-24T01:57:59.704Z,2.67
2023-05-24T02:00:11.305Z,3.10
2023-05-24T02:02:21.633Z,2.95
2023-05-24T02:04:32.977Z,3.30
2023-05-24T02:06:44.119Z,2.85
2023-05-24T02:08:56.120Z,2.88
2023-05-24T02:11:20.628Z,3.83
2023-05-24T02:13:28.771Z,3.55
2023-05-24T02:15:38.311Z,3.05
2023-05-24T02:17:47.702Z,3.05
2023-05-24T02:19:56.156Z,2.50
2023-05-24T02:22:09.288Z,2.38
2023-05-24T02:24:18.504Z,3.25
2023-05-24T02:26:26.032Z,2.88
2023-05-24T02:28:35.851Z,3.05
2023-05-24T02:30:44.544Z,3.08
2023-05-24T02:32:46.834Z,3.00
2023-05-24T02:34:48.518Z,3.00
2023-05-24T02:36:54.356Z,3.88
2023-05-24T02:38:56.771Z,3.27
2023-05-24T02:41:01.167Z,3.17
2023-05-24T02:43:05.506Z,3.25
2023-05-24T02:45:07.588Z,3.22
2023-05-24T02:47:09.069Z,3.45
2023-05-24T02:49:10.563Z,3.25
2023-05-24T02:51:14.888Z,2.92
2023-05-24T02:53:19.247Z,3.20
2023-05-24T02:55:23.618Z,2.80
2023-05-24T02:57:28.818Z,3.80
2023-05-24T02:59:36.474Z,3.05
2023-05-24T03:01:37.948Z,3.22
2023-05-24T03:03:39.716Z,3.50
2023-05-24T03:05:41.258Z,3.60
2023-05-24T03:07:42.758Z,3.33
2023-05-24T03:09:46.845Z,2.53
2023-05-24T03:11:52.878Z,3.35
2023-05-24T03:13:57.211Z,3.22
2023-05-24T03:16:01.695Z,3.10
2023-05-24T03:18:03.274Z,3.28
2023-05-24T03:20:08.361Z,3.28
2023-05-24T03:22:13.011Z,2.92
2023-05-24T03:24:14.824Z,2.95
2023-05-24T03:26:16.972Z,3.30
2023-05-24T03:28:22.370Z,2.85
2023-05-24T03:30:42.628Z,2.83
2023-05-24T03:32:47.501Z,3.75
2023-05-24T03:34:49.277Z,3.03
2023-05-24T03:36:53.813Z,4.57
2023-05-24T03:38:59.083Z,3.67
2023-05-24T03:41:00.776Z,3.28
2023-05-24T03:43:05.169Z,3.45
2023-05-24T03:45:10.333Z,3.45
2023-05-24T03:47:14.869Z,3.03
2023-05-24T03:49:16.422Z,2.90
2023-05-24T03:51:17.977Z,2.88
2023-05-24T03:53:38.003Z,3.53
2023-05-24T03:55:42.322Z,3.42
2023-05-24T03:57:43.880Z,3.47
2023-05-24T03:59:48.314Z,3.13
2023-05-24T04:01:52.771Z,2.80
2023-05-24T04:03:56.362Z,4.07
2023-05-24T04:06:17.652Z,2.63
2023-05-24T04:08:38.052Z,3.08
2023-05-24T04:10:39.527Z,2.95
2023-05-24T04:12:41.132Z,2.50
2023-05-24T04:14:42.858Z,2.53
2023-05-24T04:16:48.373Z,3.42
2023-05-24T04:18:53.296Z,2.97
2023-05-24T04:20:57.905Z,3.20
2023-05-24T04:22:59.433Z,2.90
2023-05-24T04:25:04.403Z,2.20
2023-05-24T04:27:09.921Z,3.05
2023-05-24T04:29:11.452Z,3.28
2023-05-24T04:33:19.993Z,3.53
2023-05-24T04:35:25.593Z,2.53
2023-05-24T04:37:33.156Z,3.42
2023-05-24T04:39:37.229Z,3.72
2023-05-24T04:44:01.592Z,3.00
2023-05-24T04:46:03.078Z,3.50
2023-05-24T04:50:11.476Z,3.03
2023-05-24T04:52:33.357Z,3.40
2023-05-24T04:54:37.826Z,3.13
2023-05-24T04:56:58.193Z,3.05
2023-05-24T04:58:59.693Z,3.75
2023-05-24T05:01:02.113Z,3.55
2023-05-24T05:03:05.344Z,4.28
2023-05-24T05:05:12.099Z,3.25
2023-05-24T05:07:14.036Z,3.25
2023-05-24T05:09:34.274Z,3.30
2023-05-24T05:11:36.105Z,3.17
2023-05-24T05:13:40.647Z,3.20
2023-05-24T05:15:47.872Z,3.67
2023-05-24T05:17:49.558Z,3.25
2023-05-24T05:19:51.074Z,3.15
2023-05-24T05:22:11.879Z,3.47
2023-05-24T05:24:18.225Z,4.05
2023-05-24T05:26:23.169Z,3.53
2023-05-24T05:28:28.737Z,3.38
2023-05-24T05:30:33.255Z,3.30
2023-05-24T05:36:48.170Z,3.10
2023-05-24T05:38:55.036Z,3.38
2023-05-24T05:41:16.349Z,3.42
2023-05-24T05:43:21.580Z,3.95
2023-05-24T05:45:42.299Z,3.88
2023-05-24T05:48:02.592Z,4.18
2023-05-24T05:50:05.201Z,3.53
2023-05-24T05:52:06.952Z,3.83
2023-05-24T05:54:15.538Z,3.33
2023-05-24T05:56:17.717Z,4.13
2023-05-24T05:58:22.284Z,4.13
2023-05-24T06:00:23.870Z,3.72
2023-05-24T06:02:26.565Z,3.85
2023-05-24T06:04:32.873Z,3.75
2023-05-24T06:06:35.378Z,3.72
2023-05-24T06:08:43.401Z,3.75
2023-05-24T06:10:45.519Z,3.13
2023-05-24T06:13:06.004Z,3.25
2023-05-24T06:15:10.630Z,4.18
2023-05-24T06:17:15.274Z,3.17
2023-05-24T06:19:20.894Z,3.05
2023-05-24T06:21:23.029Z,3.10
2023-05-24T06:23:27.739Z,3.70
2023-05-24T06:25:30.888Z,4.50
2023-05-24T06:27:35.172Z,2.92
2023-05-24T06:29:39.367Z,2.90
2023-05-24T06:31:45.776Z,3.72
2023-05-24T06:34:02.263Z,3.20
2023-05-24T06:36:05.154Z,3.17
2023-05-24T06:38:09.651Z,3.50
2023-05-24T06:40:11.899Z,3.53
2023-05-24T06:42:32.233Z,3.50
2023-05-24T06:44:34.631Z,3.88
2023-05-24T06:46:36.550Z,3.53
2023-05-24T06:48:38.122Z,3.08
2023-05-24T06:50:44.695Z,3.85
2023-05-24T06:52:49.521Z,2.85
2023-05-24T06:55:10.674Z,2.92
2023-05-24T06:57:14.325Z,3.78
2023-05-24T06:59:19.389Z,3.53
2023-05-24T07:01:24.050Z,2.53
2023-05-24T07:03:25.807Z,3.10
2023-05-24T07:05:28.841Z,2.92
2023-05-24T07:07:38.971Z,3.40
2023-05-24T07:09:41.681Z,3.20
2023-05-24T07:12:02.624Z,3.22
2023-05-24T07:14:04.293Z,2.93
2023-05-24T07:16:06.364Z,3.67
2023-05-24T07:18:07.951Z,3.03
2023-05-24T07:20:14.745Z,3.67
2023-05-24T07:22:16.559Z,3.08
2023-05-24T07:24:22.188Z,2.97
2023-05-24T07:26:28.187Z,3.15
2023-05-24T07:28:29.823Z,3.70
2023-05-24T07:30:32.949Z,2.88
2023-05-24T07:32:37.565Z,3.60
2023-05-24T07:34:43.201Z,3.13
2023-05-24T07:36:45.524Z,3.08
2023-05-24T07:38:49.582Z,2.75
2023-05-24T07:40:53.969Z,3.03
2023-05-24T07:42:56.968Z,3.08
2023-05-24T07:44:58.424Z,2.38
2023-05-24T07:47:02.683Z,2.88
2023-05-24T07:49:07.047Z,2.88
2023-05-24T07:51:12.914Z,2.97
2023-05-24T07:53:17.423Z,2.80
2023-05-24T07:55:21.879Z,3.08
2023-05-24T07:57:23.804Z,2.95
2023-05-24T07:59:30.637Z,2.95
2023-05-24T08:01:34.388Z,3.17
2023-05-24T08:03:36.908Z,3.33
2023-05-24T08:05:38.539Z,4.07
2023-05-24T08:07:42.837Z,3.13
2023-05-24T08:09:50.833Z,3.17
2023-05-24T08:11:54.942Z,3.00
2023-05-24T08:14:00.543Z,2.58
2023-05-24T08:16:09.417Z,2.78
2023-05-24T08:18:15.969Z,3.05
2023-05-24T08:20:23.408Z,3.50
2023-05-24T08:22:29.088Z,3.40
2023-05-24T08:24:35.898Z,2.35
2023-05-24T08:26:39.628Z,3.28
2023-05-24T08:28:46.461Z,3.08
2023-05-24T08:30:52.989Z,3.10
2023-05-24T08:32:57.391Z,2.78
2023-05-24T08:35:14.827Z,3.28
2023-05-24T08:37:24.086Z,2.80
2023-05-24T08:39:26.471Z,2.25
2023-05-24T08:41:38.499Z,2.45
2023-05-24T08:43:43.617Z,2.92
2023-05-24T08:46:06.938Z,2.53
2023-05-24T08:48:29.915Z,2.55
2023-05-24T08:50:50.979Z,2.45
2023-05-24T08:52:55.951Z,2.95
2023-05-24T08:54:59.039Z,2.95
2023-05-24T08:57:03.794Z,3.83
2023-05-24T08:59:08.599Z,3.15
2023-05-24T09:01:11.548Z,4.53
2023-05-24T09:03:13.635Z,2.88
2023-05-24T09:05:21.604Z,2.72
2023-05-24T09:07:25.882Z,3.45
2023-05-24T09:09:29.093Z,3.13
2023-05-24T09:11:32.104Z,3.00
2023-05-24T09:13:34.978Z,2.50
2023-05-24T09:15:39.718Z,2.88
2023-05-24T09:18:00.039Z,2.95
2023-05-24T09:20:02.184Z,2.95
2023-05-24T09:22:03.990Z,3.15
2023-05-24T09:24:08.479Z,3.30
2023-05-24T09:26:11.322Z,2.95
2023-05-24T09:28:17.684Z,3.13
2023-05-24T09:30:19.872Z,3.17
2023-05-24T09:32:24.325Z,2.28
2023-05-24T09:34:25.966Z,3.05
2023-05-24T09:36:33.156Z,2.50
2023-05-24T09:38:37.687Z,3.88
2023-05-24T09:40:43.812Z,3.53
2023-05-24T09:42:46.497Z,2.67
2023-05-24T09:44:59.386Z,3.22
2023-05-24T09:47:05.172Z,2.67
2023-05-24T09:49:25.464Z,3.25
2023-05-24T09:51:27.073Z,2.65
2023-05-24T09:53:33.971Z,2.83
2023-05-24T09:55:36.771Z,3.17
2023-05-24T09:59:42.928Z,2.58
2023-05-24T10:01:47.102Z,3.10
2023-05-24T10:03:55.702Z,3.10
2023-05-24T10:06:01.876Z,2.30
2023-05-24T10:08:06.091Z,2.35
2023-05-24T10:10:08.625Z,2.90
2023-05-24T10:12:10.091Z,3.35
2023-05-24T10:14:11.973Z,3.95
2023-05-24T10:16:13.574Z,3.00
2023-05-24T10:18:15.153Z,2.50
2023-05-24T10:20:17.012Z,3.03
2023-05-24T10:22:25.174Z,2.53
2023-05-24T10:24:30.777Z,2.90
2023-05-24T10:26:32.943Z,3.10
2023-05-24T10:28:40.167Z,2.80
2023-05-24T10:30:44.446Z,2.78
2023-05-24T10:33:06.209Z,3.35
2023-05-24T10:35:09.018Z,2.67
2023-05-24T10:37:10.620Z,3.70
2023-05-24T10:39:12.673Z,2.63
2023-05-24T10:41:17.868Z,3.10
2023-05-24T10:43:22.152Z,2.92
2023-05-24T10:45:32.729Z,3.63
2023-05-24T10:47:39.081Z,2.85
2023-05-24T10:49:53.547Z,3.25
2023-05-24T10:52:01.545Z,2.50
2023-05-24T10:54:13.152Z,2.85
2023-05-24T10:56:15.304Z,2.72
2023-05-24T10:58:17.210Z,3.40
2023-05-24T11:00:35.429Z,3.25
2023-05-24T11:02:40.635Z,3.92
2023-05-24T11:04:49.254Z,3.20
2023-05-24T11:06:58.237Z,3.65
2023-05-24T11:09:00.178Z,3.60
2023-05-24T11:13:18.893Z,2.92
2023-05-24T11:15:39.635Z,3.13
2023-05-24T11:18:15.016Z,2.83
2023-05-24T11:20:17.565Z,3.75
2023-05-24T11:22:23.259Z,3.30
2023-05-24T11:24:46.062Z,3.90
2023-05-24T11:26:54.235Z,3.72
2023-05-24T11:29:04.873Z,3.17
2023-05-24T11:31:11.544Z,3.08
2023-05-24T11:33:18.569Z,3.63
2023-05-24T11:35:24.362Z,3.25
2023-05-24T11:37:38.449Z,3.67
2023-05-24T11:39:55.718Z,3.35
2023-05-24T11:42:03.495Z,2.70
2023-05-24T11:44:10.901Z,3.42
2023-05-24T11:46:17.999Z,3.40
2023-05-24T11:48:24.293Z,3.60
2023-05-24T11:50:39.094Z,3.10
2023-05-24T11:52:52.043Z,4.30
2023-05-24T11:54:56.560Z,3.58
2023-05-24T11:57:00.764Z,3.22
2023-05-24T11:59:11.527Z,2.80
2023-05-24T12:01:25.985Z,3.47
2023-05-24T12:03:27.820Z,3.55
2023-05-24T12:05:32.244Z,3.15
2023-05-24T12:07:37.855Z,3.28
2023-05-24T12:09:42.128Z,2.97
2023-05-24T12:11:47.490Z,2.92
2023-05-24T12:13:48.979Z,3.95
2023-05-24T12:15:56.354Z,4.45
2023-05-24T12:17:58.575Z,3.33
2023-05-24T12:20:03.304Z,3.30
2023-05-24T12:22:06.391Z,3.03
2023-05-24T12:24:09.557Z,2.90
2023-05-24T12:26:13.450Z,3.70
2023-05-24T12:28:21.796Z,3.60
2023-05-24T12:30:27.014Z,3.88
2023-05-24T12:32:31.470Z,2.83
2023-05-24T12:34:35.901Z,3.33
2023-05-24T12:36:38.294Z,3.28
2023-05-24T12:38:42.615Z,3.80
2023-05-24T12:40:44.572Z,2.90
2023-05-24T12:42:56.740Z,3.03
2023-05-24T12:45:01.177Z,3.28
2023-05-24T12:47:22.082Z,2.72
2023-05-24T12:49:26.907Z,2.97
2023-05-24T12:51:31.280Z,3.03
2023-05-24T12:53:35.380Z,3.63
2023-05-24T12:55:39.990Z,3.15
2023-05-24T12:57:42.551Z,2.67
2023-05-24T12:59:47.694Z,3.22
2023-05-24T13:01:52.673Z,3.95
2023-05-24T13:03:57.385Z,2.97
2023-05-24T13:06:01.896Z,2.65
2023-05-24T13:08:04.009Z,3.35
2023-05-24T13:10:06.712Z,3.13
2023-05-24T13:12:11.032Z,3.35
2023-05-24T13:14:12.854Z,3.25
2023-05-24T13:16:14.414Z,3.28
2023-05-24T13:18:34.933Z,3.92
2023-05-24T13:20:36.494Z,3.70
2023-05-24T13:22:42.304Z,3.20
2023-05-24T13:24:43.907Z,3.10
2023-05-24T13:26:49.100Z,2.72
2023-05-24T13:29:21.902Z,3.05
2023-05-24T13:31:14.524Z,2.95
2023-05-24T13:33:16.100Z,3.00
2023-05-24T13:35:20.577Z,3.05
2023-05-24T13:37:22.255Z,2.95
2023-05-24T13:39:27.886Z,2.88
2023-05-24T13:41:32.900Z,3.28
2023-05-24T13:43:53.627Z,2.80
2023-05-24T13:45:58.694Z,2.83
2023-05-24T13:48:04.056Z,3.30
2023-05-24T13:50:05.966Z,3.50
2023-05-24T13:52:10.237Z,3.40
2023-05-24T13:54:15.068Z,3.58
2023-05-24T13:56:16.952Z,2.95
2023-05-24T13:58:21.363Z,2.97
2023-05-24T14:00:42.753Z,3.35
2023-05-24T14:02:44.597Z,3.25
2023-05-24T14:04:46.228Z,3.65
2023-05-24T14:06:48.137Z,3.30
2023-05-24T14:08:52.528Z,2.83
2023-05-24T14:10:59.831Z,3.75
2023-05-24T14:15:15.530Z,4.18
2023-05-24T14:17:17.018Z,2.85
2023-05-24T14:19:18.529Z,2.53
2023-05-24T14:21:23.387Z,2.78
2023-05-24T14:23:31.730Z,2.78
2023-05-24T14:25:38.447Z,3.42
2023-05-24T14:27:46.224Z,2.75
2023-05-24T14:29:56.008Z,2.55
2023-05-24T14:32:05.004Z,3.20
2023-05-24T14:34:12.112Z,3.50
2023-05-24T14:36:35.980Z,3.92
2023-05-24T14:38:42.243Z,3.22
2023-05-24T14:40:50.799Z,3.35
2023-05-24T14:43:00.162Z,2.65
2023-05-24T14:45:08.943Z,3.00
2023-05-24T14:47:32.145Z,3.28
2023-05-24T14:49:40.513Z,2.88
2023-05-24T14:52:06.228Z,2.92
2023-05-24T14:54:14.197Z,2.95
2023-05-24T14:56:20.452Z,3.53
2023-05-24T14:58:28.420Z,2.55
2023-05-24T15:00:53.512Z,3.55
2023-05-24T15:03:14.994Z,3.60
2023-05-24T15:05:19.846Z,3.55
2023-05-24T15:07:22.739Z,3.53
2023-05-24T15:09:27.607Z,3.33
2023-05-24T15:11:29.564Z,4.57
2023-05-24T15:13:34.088Z,3.25
2023-05-24T15:15:35.899Z,3.25
2023-05-24T15:17:37.544Z,3.08
2023-05-24T15:19:39.989Z,3.25
2023-05-24T15:21:44.073Z,2.97
2023-05-24T15:24:04.187Z,3.13
2023-05-24T15:26:05.808Z,3.08
2023-05-24T15:28:07.502Z,2.80
2023-05-24T15:30:09.118Z,3.33
2023-05-24T15:32:13.241Z,3.55
2023-05-24T15:34:33.420Z,3.10
2023-05-24T15:36:37.863Z,4.15
2023-05-24T15:38:43.010Z,2.83
2023-05-24T15:40:47.380Z,3.05
2023-05-24T15:43:07.672Z,2.58
2023-05-24T15:45:09.667Z,3.08
2023-05-24T15:47:11.326Z,2.67
2023-05-24T15:49:12.936Z,2.97
2023-05-24T15:53:22.905Z,3.00
2023-05-24T15:55:24.372Z,3.10
2023-05-24T15:57:28.383Z,2.75
2023-05-24T15:59:35.350Z,3.60
2023-05-24T16:01:56.657Z,3.20
2023-05-24T16:04:00.997Z,3.90
2023-05-24T16:06:05.609Z,3.47
2023-05-24T16:08:07.065Z,2.92
2023-05-24T16:10:08.649Z,3.00
2023-05-24T16:12:10.177Z,3.30
2023-05-24T16:14:11.873Z,3.72
2023-05-24T16:16:13.492Z,3.53
2023-05-24T16:18:18.056Z,3.13
2023-05-24T16:20:19.669Z,3.13
2023-05-24T16:22:21.157Z,3.58
2023-05-24T16:24:25.772Z,3.78
2023-05-24T16:26:30.573Z,3.25
2023-05-24T16:28:34.901Z,3.17
2023-05-24T16:30:56.510Z,3.40
2023-05-24T16:33:01.202Z,3.55
2023-05-24T16:35:02.983Z,4.53
2023-05-24T16:37:04.460Z,3.90
2023-05-24T16:39:08.740Z,3.08
2023-05-24T16:41:11.019Z,3.72
2023-05-24T16:43:12.529Z,2.42
2023-05-24T16:45:14.369Z,3.05
2023-05-24T16:47:18.565Z,2.83
2023-05-24T16:49:20.194Z,3.58
2023-05-24T16:51:21.886Z,3.13
2023-05-24T16:53:26.817Z,2.63
2023-05-24T16:55:28.496Z,3.30
2023-05-24T16:57:29.928Z,2.80
2023-05-24T16:59:51.010Z,3.08
2023-05-24T17:01:52.654Z,2.80
2023-05-24T17:03:54.312Z,3.45
2023-05-24T17:06:04.933Z,3.03
2023-05-24T17:08:25.935Z,2.83
2023-05-24T17:10:30.352Z,3.08
2023-05-24T17:12:31.865Z,3.25
2023-05-24T17:14:33.367Z,3.65
2023-05-24T17:16:37.448Z,3.67
2023-05-24T17:18:41.698Z,3.60
2023-05-24T17:20:46.227Z,3.90
2023-05-24T17:22:51.107Z,3.72
2023-05-24T17:24:55.465Z,3.03
2023-05-24T17:26:56.899Z,3.03
2023-05-24T17:29:01.206Z,2.92
2023-05-24T17:31:21.864Z,3.10
2023-05-24T17:33:27.284Z,3.58
2023-05-24T17:35:28.803Z,3.22
2023-05-24T17:37:32.803Z,3.88
2023-05-24T17:39:45.296Z,3.65
2023-05-24T17:41:56.345Z,3.35
2023-05-24T17:44:10.951Z,3.23
2023-05-24T17:46:22.161Z,3.17
2023-05-24T17:48:38.029Z,3.28
2023-05-24T17:50:50.568Z,3.30
2023-05-24T17:53:05.155Z,3.05
2023-05-24T17:55:21.956Z,3.25
2023-05-24T17:57:33.040Z,3.28
2023-05-24T18:00:00.134Z,2.95
2023-05-24T18:02:12.478Z,3.40
2023-05-24T18:04:24.171Z,3.38
2023-05-24T18:06:38.835Z,3.42
2023-05-24T18:08:55.063Z,3.33
2023-05-24T18:11:01.620Z,2.70
2023-05-24T18:13:27.737Z,3.20
2023-05-24T18:15:57.323Z,3.50
2023-05-24T18:18:00.279Z,3.10
2023-05-24T18:20:05.701Z,3.28
2023-05-24T18:22:10.117Z,3.60
2023-05-24T18:24:11.802Z,3.33
2023-05-24T18:26:16.053Z,3.20
2023-05-24T18:28:20.637Z,3.05
2023-05-24T18:30:24.993Z,2.60
2023-05-24T18:32:26.537Z,2.63
2023-05-24T18:34:28.035Z,2.70
2023-05-24T18:36:29.671Z,2.65
2023-05-24T18:38:50.075Z,2.97
2023-05-24T18:40:57.685Z,2.85
2023-05-24T18:43:02.522Z,3.30
2023-05-24T18:45:07.273Z,3.05
2023-05-24T18:47:10.314Z,2.97
2023-05-24T18:49:14.574Z,2.60
2023-05-24T18:51:16.022Z,3.28
2023-05-24T18:53:17.704Z,2.83
2023-05-24T18:55:37.780Z,3.15
2023-05-24T18:57:41.802Z,2.83
2023-05-24T18:59:43.285Z,2.83
2023-05-24T19:01:47.706Z,2.88
2023-05-24T19:03:52.448Z,3.33
2023-05-24T19:05:53.947Z,3.65
2023-05-24T19:07:55.633Z,3.00
2023-05-24T19:09:59.777Z,2.67
2023-05-24T19:12:04.661Z,2.80
2023-05-24T19:14:06.190Z,4.72
2023-05-24T19:16:17.366Z,2.92
2023-05-24T19:18:22.927Z,2.88
2023-05-24T19:20:24.936Z,3.00
2023-05-24T19:22:29.563Z,3.30
2023-05-24T19:24:33.582Z,4.15
2023-05-24T19:26:35.190Z,3.25
2023-05-24T19:28:47.994Z,2.83
2023-05-24T19:30:49.476Z,3.20
2023-05-24T19:32:56.885Z,3.70
2023-05-24T19:34:58.480Z,3.38
2023-05-24T19:37:03.054Z,2.67
2023-05-24T19:39:04.694Z,2.55
2023-05-24T19:41:06.331Z,2.70
2023-05-24T19:43:10.933Z,3.22
2023-05-24T19:45:13.467Z,3.10
2023-05-24T19:47:15.328Z,3.20
2023-05-24T19:49:16.992Z,2.45
2023-05-24T19:51:21.692Z,2.95
2023-05-24T19:53:23.187Z,3.30
2023-05-24T19:55:27.291Z,2.75
2023-05-24T19:57:29.021Z,3.05
2023-05-24T19:59:30.553Z,3.13
2023-05-24T20:01:32.074Z,3.53
2023-05-24T20:03:33.705Z,3.30
2023-05-24T20:05:35.225Z,3.17
2023-05-24T20:07:39.704Z,3.25
2023-05-24T20:09:41.839Z,3.20
2023-05-24T20:11:46.377Z,3.50
2023-05-24T20:13:52.497Z,4.80
2023-05-24T20:15:56.024Z,3.42
2023-05-24T20:17:57.993Z,3.70
2023-05-24T20:20:04.045Z,4.22
2023-05-24T20:22:05.644Z,3.80
2023-05-24T20:24:10.003Z,5.07
2023-05-24T20:26:11.842Z,3.53
2023-05-24T20:28:29.641Z,3.40
2023-05-24T20:30:35.936Z,3.88
2023-05-24T20:32:48.939Z,3.83
2023-05-24T20:34:53.925Z,4.07
2023-05-24T20:36:58.265Z,3.58
2023-05-24T20:38:59.747Z,3.55
2023-05-24T20:41:17.311Z,3.85
2023-05-24T20:43:35.710Z,3.60
2023-05-24T20:45:57.087Z,4.03
2023-05-24T20:48:15.078Z,4.28
2023-05-24T20:50:35.391Z,3.40
2023-05-24T20:52:50.674Z,3.75
2023-05-24T20:55:04.155Z,4.28
2023-05-24T20:57:17.120Z,4.30
2023-05-24T20:59:50.055Z,4.22
2023-05-24T21:06:49.916Z,3.80
2023-05-24T21:09:10.093Z,4.20
2023-05-24T21:11:27.439Z,4.80
2023-05-24T21:13:38.186Z,4.40
2023-05-24T21:15:39.716Z,4.93
2023-05-24T21:17:44.079Z,4.88
2023-05-24T21:19:48.341Z,4.40
2023-05-24T21:21:52.631Z,4.32
2023-05-24T21:23:54.124Z,4.70
2023-05-24T21:25:58.485Z,4.38
2023-05-24T21:27:59.896Z,4.22
2023-05-24T21:30:01.501Z,5.07
2023-05-24T21:32:03.030Z,5.03
2023-05-24T21:34:07.113Z,4.68
2023-05-24T21:36:11.729Z,5.78
2023-05-24T21:38:16.051Z,5.47
2023-05-24T21:40:17.596Z,4.32
2023-05-24T21:42:21.768Z,5.18
2023-05-24T21:44:26.126Z,4.85
2023-05-24T21:46:30.881Z,4.93
2023-05-24T21:48:35.243Z,5.63
2023-05-24T21:50:36.771Z,4.45
2023-05-24T21:52:39.369Z,4.90
2023-05-24T21:54:40.860Z,4.75
2023-05-24T21:57:01.453Z,5.03
2023-05-24T21:59:05.792Z,4.65
2023-05-24T22:01:10.132Z,4.50
2023-05-24T22:03:11.681Z,5.13
2023-05-24T22:05:13.195Z,5.13
2023-05-24T22:07:14.777Z,4.80
2023-05-24T22:09:19.074Z,5.15
2023-05-24T22:11:40.917Z,5.22
2023-05-24T22:13:42.371Z,5.30
2023-05-24T22:17:50.954Z,4.95
2023-05-24T22:19:53.194Z,4.68
2023-05-24T22:21:59.643Z,6.00
2023-05-24T22:24:03.946Z,4.53
2023-05-24T22:26:05.816Z,4.15
2023-05-24T22:28:09.520Z,4.82
2023-05-24T22:30:14.562Z,4.43
2023-05-24T22:32:18.944Z,4.95
2023-05-24T22:34:27.307Z,3.90
2023-05-24T22:36:33.378Z,4.40
2023-05-24T22:38:38.276Z,4.93
2023-05-24T22:40:42.432Z,4.50
2023-05-24T22:42:44.220Z,4.35
2023-05-24T22:44:46.419Z,4.40
2023-05-24T22:46:53.449Z,4.97
2023-05-24T22:49:14.417Z,4.88
2023-05-24T22:51:19.414Z,4.50
2023-05-24T22:53:23.858Z,4.70
2023-05-24T22:55:44.109Z,4.47
2023-05-24T22:57:48.227Z,5.13
2023-05-24T23:00:09.200Z,5.20
2023-05-24T23:02:13.963Z,4.90
2023-05-24T23:06:41.684Z,5.70
2023-05-24T23:08:43.322Z,5.18
2023-05-24T23:10:47.758Z,5.25
2023-05-24T23:13:07.636Z,5.65
2023-05-24T23:15:09.984Z,4.97
2023-05-24T23:17:14.554Z,6.22
2023-05-24T23:19:19.180Z,5.40
2023-05-24T23:21:22.310Z,5.45
2023-05-24T23:23:24.854Z,6.03
2023-05-24T23:25:26.513Z,5.43
2023-05-24T23:27:27.975Z,4.90
2023-05-24T23:29:29.408Z,4.65
2023-05-24T23:31:31.190Z,5.55
2023-05-24T23:33:35.514Z,5.65
2023-05-24T23:35:39.974Z,5.03
2023-05-24T23:37:44.525Z,5.15
2023-05-24T23:39:55.835Z,6.40
2023-05-24T23:42:02.935Z,4.85
2023-05-24T23:44:15.936Z,6.03
2023-05-24T23:46:46.731Z,5.75
2023-05-24T23:48:56.033Z,5.32
2023-05-24T23:51:06.284Z,6.28
2023-05-24T23:53:14.977Z,5.78
2023-05-24T23:55:23.974Z,5.03
2023-05-24T23:57:50.834Z,4.95
